Time;durP1;ratioP1;P1;durP2;ratioP2;P2;SDS_P1;SDS_P2;PMS_P1;PMS_P2;Temp;Humidity;BMP_temperature;BMP_pressure;BME280_temperature;BME280_humidity;BME280_pressure;Samples;Min_cycle;Max_cycle;Signal;HPM_P1;HPM_P2
2022/01/16 00:01:35;;;;;;;33.08;17.50;;;-3.10;99.90;;;;;;5076900;28;19971;-61
2022/01/16 00:04:11;;;;;;;29.25;15.52;;;-3.10;99.90;;;;;;5080349;28;20056;-61
2022/01/16 00:06:42;;;;;;;28.50;14.30;;;-3.10;99.90;;;;;;5081593;28;20052;-62
2022/01/16 00:09:09;;;;;;;25.48;14.32;;;-3.10;99.90;;;;;;5078726;28;20101;-62
2022/01/16 00:11:36;;;;;;;26.67;13.68;;;-3.20;99.90;;;;;;5081076;28;20040;-62
2022/01/16 00:14:04;;;;;;;25.10;13.18;;;-3.20;99.90;;;;;;5080790;28;20040;-61
2022/01/16 00:16:32;;;;;;;23.17;13.60;;;-3.20;99.90;;;;;;5081120;28;20097;-61
2022/01/16 00:18:59;;;;;;;28.35;15.18;;;-3.20;99.90;;;;;;5081841;28;20101;-61
2022/01/16 00:21:27;;;;;;;27.90;16.50;;;-3.20;99.90;;;;;;5081794;28;20044;-61
2022/01/16 00:23:54;;;;;;;36.42;21.30;;;-3.20;99.90;;;;;;5080935;28;20097;-61
2022/01/16 00:26:22;;;;;;;40.78;21.63;;;-3.20;99.90;;;;;;5080581;28;20089;-61
2022/01/16 00:28:51;;;;;;;40.33;21.73;;;-3.20;99.90;;;;;;5080671;28;20036;-62
2022/01/16 00:31:19;;;;;;;49.25;26.25;;;-3.20;99.90;;;;;;5079666;28;20051;-61
2022/01/16 00:33:47;;;;;;;52.20;26.48;;;-3.20;99.90;;;;;;5080884;28;20073;-61
2022/01/16 00:36:17;;;;;;;51.97;28.92;;;-3.20;99.90;;;;;;5080975;28;20040;-61
2022/01/16 00:38:45;;;;;;;51.95;28.77;;;-3.10;99.90;;;;;;5079045;28;20530;-61
2022/01/16 00:41:14;;;;;;;54.03;28.40;;;-3.10;99.90;;;;;;5080661;28;20063;-61
2022/01/16 00:43:41;;;;;;;55.67;30.77;;;-3.10;99.90;;;;;;5079040;28;20048;-61
2022/01/16 00:46:09;;;;;;;49.75;28.63;;;-3.10;99.90;;;;;;5079979;28;20140;-62
2022/01/16 00:48:36;;;;;;;58.38;30.27;;;-3.10;99.90;;;;;;5079831;28;20080;-61
2022/01/16 00:51:03;;;;;;;63.22;36.60;;;-3.10;99.90;;;;;;5080114;28;20044;-62
2022/01/16 00:53:30;;;;;;;71.25;37.80;;;-3.00;99.90;;;;;;5080155;28;20070;-62
2022/01/16 00:55:57;;;;;;;65.47;36.58;;;-3.00;99.90;;;;;;5080718;28;20048;-61
2022/01/16 00:58:23;;;;;;;61.78;34.35;;;-3.00;99.90;;;;;;5080558;28;20040;-62
2022/01/16 01:00:50;;;;;;;;;;;-3.00;99.90;;;;;;5079375;28;20133;-61
2022/01/16 01:03:17;;;;;;;53.92;30.95;;;-3.00;99.90;;;;;;5080153;28;19927;-61
2022/01/16 01:05:44;;;;;;;60.22;32.08;;;-3.00;99.90;;;;;;5079444;28;20076;-61
2022/01/16 01:08:11;;;;;;;48.95;28.10;;;-3.00;99.90;;;;;;5080299;28;20048;-61
2022/01/16 01:10:40;;;;;;;49.88;26.92;;;-3.00;99.90;;;;;;5079172;28;20052;-62
2022/01/16 01:15:43;;;;;;;43.08;24.23;;;-3.10;99.90;;;;;;5078140;28;20052;-62
2022/01/16 01:18:10;;;;;;;40.85;22.95;;;-3.10;99.90;;;;;;5079761;28;20044;-61
2022/01/16 01:20:40;;;;;;;33.92;17.58;;;-3.10;99.90;;;;;;5079272;28;20114;-62
2022/01/16 01:23:08;;;;;;;29.75;15.80;;;-3.20;99.90;;;;;;5079127;28;20052;-61
2022/01/16 01:25:35;;;;;;;31.63;16.63;;;-3.20;99.90;;;;;;5079211;28;20532;-62
2022/01/16 01:28:03;;;;;;;30.85;16.63;;;-3.30;99.90;;;;;;5078965;28;20063;-61
2022/01/16 01:30:30;;;;;;;34.88;18.30;;;-3.20;99.90;;;;;;5079908;28;20044;-62
2022/01/16 01:32:58;;;;;;;33.50;18.67;;;-3.20;99.90;;;;;;5079384;28;20064;-62
2022/01/16 01:35:26;;;;;;;35.25;18.48;;;-3.20;99.90;;;;;;5079143;28;20475;-62
2022/01/16 01:37:52;;;;;;;36.63;19.13;;;-3.20;99.90;;;;;;5079351;28;20798;-61
2022/01/16 01:40:23;;;;;;;37.75;19.38;;;-3.20;99.90;;;;;;5079191;28;20422;-62
2022/01/16 01:51:20;;;;;;;37.92;18.98;;;-3.10;99.90;;;;;;5079296;28;20052;-61
2022/01/16 01:53:47;;;;;;;36.08;19.42;;;-3.10;99.90;;;;;;5076989;28;20051;-61
2022/01/16 01:56:21;;;;;;;28.55;15.75;;;-3.10;99.90;;;;;;5077817;28;20553;-61
2022/01/16 01:58:48;;;;;;;37.22;19.48;;;-3.10;99.90;;;;;;5078926;28;20044;-61
2022/01/16 02:01:15;;;;;;;32.83;18.42;;;-3.10;99.90;;;;;;5078456;28;20254;-62
2022/01/16 02:03:42;;;;;;;27.83;14.50;;;-3.10;99.90;;;;;;5078625;28;20047;-61
2022/01/16 02:06:17;;;;;;;35.80;17.45;;;-3.10;99.90;;;;;;5078558;28;20118;-61
2022/01/16 02:08:53;;;;;;;28.50;14.50;;;-3.10;99.90;;;;;;5079239;28;20044;-61
2022/01/16 02:11:27;;;;;;;19.58;11.80;;;-3.00;99.90;;;;;;5078760;28;20113;-61
2022/01/16 02:14:02;;;;;;;20.02;11.98;;;-3.00;99.90;;;;;;5078925;28;20426;-61
2022/01/16 02:29:02;;;;;;;17.40;9.13;;;-3.20;99.90;;;;;;5078115;28;20075;-61
2022/01/16 02:35:52;;;;;;;16.60;8.07;;;-3.30;99.90;;;;;;5077989;28;20044;-62
2022/01/16 02:38:20;;;;;;;13.85;7.05;;;-3.40;99.90;;;;;;5078352;28;20292;-61
2022/01/16 02:40:58;;;;;;;11.80;6.60;;;-3.40;99.90;;;;;;5077700;28;20040;-61
2022/01/16 02:43:34;;;;;;;13.25;7.75;;;-3.40;99.90;;;;;;5078110;28;20113;-61
2022/01/16 02:48:45;;;;;;;14.05;7.85;;;-3.50;99.90;;;;;;5078221;28;20427;-61
2022/01/16 02:51:22;;;;;;;15.82;8.18;;;-3.50;99.90;;;;;;5075979;28;20039;-61
2022/01/16 02:53:49;;;;;;;13.68;7.78;;;-3.50;99.90;;;;;;5078039;28;20044;-61
2022/01/16 02:56:18;;;;;;;14.20;7.68;;;-3.60;99.90;;;;;;5077969;28;20131;-60
2022/01/16 02:58:45;;;;;;;13.48;6.75;;;-3.60;99.90;;;;;;5077857;28;20036;-62
2022/01/16 03:01:13;;;;;;;16.15;9.40;;;-3.70;99.90;;;;;;5077958;28;20079;-61
2022/01/16 03:03:41;;;;;;;18.23;10.65;;;-3.70;99.90;;;;;;5077679;28;20043;-61
2022/01/16 03:06:07;;;;;;;28.92;14.98;;;-3.70;99.90;;;;;;5078316;28;20051;-61
2022/01/16 03:08:34;;;;;;;31.05;14.90;;;-3.70;99.90;;;;;;5077463;28;20048;-61
2022/01/16 03:14:04;;;;;;;55.80;23.20;;;-3.60;99.90;;;;;;4993982;28;20054;-61
2022/01/16 03:16:31;;;;;;;68.05;32.55;;;-3.50;99.90;;;;;;5061937;28;20121;-60
2022/01/16 03:21:57;;;;;;;45.97;22.50;;;-3.40;99.90;;;;;;5077609;28;20049;-61
2022/01/16 03:24:27;;;;;;;40.13;20.05;;;-3.30;99.90;;;;;;5076748;28;20421;-61
2022/01/16 03:26:56;;;;;;;37.92;19.50;;;-3.40;99.90;;;;;;5072104;28;20044;-61
2022/01/16 03:29:25;;;;;;;35.53;18.33;;;-3.40;99.90;;;;;;5072334;28;20093;-61
2022/01/16 03:31:52;;;;;;;32.72;17.33;;;-3.30;99.90;;;;;;5077268;28;20563;-61
2022/01/16 03:34:19;;;;;;;26.92;15.40;;;-3.30;99.90;;;;;;5077917;28;20040;-61
2022/01/16 03:36:47;;;;;;;24.55;13.10;;;-3.40;99.90;;;;;;5076284;28;20325;-62
2022/01/16 03:39:14;;;;;;;26.50;13.25;;;-3.40;99.90;;;;;;5077134;28;20073;-61
2022/01/16 03:41:41;;;;;;;26.35;13.88;;;-3.40;99.90;;;;;;5076407;28;20044;-61
2022/01/16 03:44:08;;;;;;;27.00;14.45;;;-3.40;99.90;;;;;;5077316;28;20044;-61
2022/01/16 03:46:41;;;;;;;24.73;13.82;;;-3.30;99.90;;;;;;5074818;28;20229;-61
2022/01/16 03:49:10;;;;;;;27.52;13.88;;;-3.30;99.90;;;;;;5075989;28;20048;-61
2022/01/16 03:51:39;;;;;;;23.10;13.02;;;-3.30;99.90;;;;;;5076918;28;20544;-61
2022/01/16 03:54:08;;;;;;;28.05;14.15;;;-3.30;99.90;;;;;;5077329;28;20048;-61
2022/01/16 03:56:35;;;;;;;25.30;13.13;;;-3.30;99.90;;;;;;5077186;28;20047;-62
2022/01/16 03:59:02;;;;;;;22.63;12.40;;;-3.30;99.90;;;;;;5076284;28;20074;-61
2022/01/16 04:01:30;;;;;;;22.15;11.82;;;-3.30;99.90;;;;;;5076183;28;20040;-61
2022/01/16 04:03:56;;;;;;;21.27;11.40;;;-3.30;99.90;;;;;;5076425;28;20115;-60
2022/01/16 04:06:24;;;;;;;19.80;11.48;;;-3.30;99.90;;;;;;5077252;28;20466;-61
2022/01/16 04:08:55;;;;;;;20.25;12.15;;;-3.30;99.90;;;;;;5076713;28;20052;-62
2022/01/16 04:11:25;;;;;;;22.70;13.38;;;-3.30;99.90;;;;;;5077154;28;20105;-61
2022/01/16 04:13:54;;;;;;;26.80;13.75;;;-3.30;99.90;;;;;;5077125;28;20044;-61
2022/01/16 04:16:23;;;;;;;22.77;12.35;;;-3.30;99.90;;;;;;5075315;28;20081;-61
2022/01/16 04:18:51;;;;;;;26.95;14.27;;;-3.30;99.90;;;;;;5060663;28;20283;-61
2022/01/16 04:21:20;;;;;;;32.97;15.35;;;-3.30;99.90;;;;;;5076613;28;20559;-62
2022/01/16 04:23:47;;;;;;;25.98;14.63;;;-3.30;99.90;;;;;;5076665;28;20476;-61
2022/01/16 04:26:15;;;;;;;27.83;14.70;;;-3.30;99.90;;;;;;5076933;28;20529;-61
2022/01/16 04:28:42;;;;;;;24.45;13.60;;;-3.20;99.90;;;;;;5076810;28;20047;-60
2022/01/16 04:31:09;;;;;;;26.98;13.65;;;-3.20;99.90;;;;;;5076275;28;20040;-61
2022/01/16 04:33:36;;;;;;;27.00;14.07;;;-3.10;99.90;;;;;;5076789;28;20319;-61
2022/01/16 04:36:03;;;;;;;25.42;14.23;;;-3.10;99.90;;;;;;5076465;28;20576;-62
2022/01/16 04:38:30;;;;;;;23.27;12.80;;;-3.10;99.90;;;;;;5076728;28;20725;-62
2022/01/16 04:43:48;;;;;;;18.13;10.13;;;-3.10;99.90;;;;;;5076301;28;20792;-61
2022/01/16 04:46:15;;;;;;;17.23;9.85;;;-3.10;99.90;;;;;;5076975;28;20051;-61
2022/01/16 04:48:43;;;;;;;16.15;8.77;;;-3.00;99.90;;;;;;5075797;28;20140;-61
2022/01/16 04:51:10;;;;;;;16.52;8.60;;;-3.00;99.90;;;;;;5080015;28;20535;-61
2022/01/16 04:53:37;;;;;;;15.93;7.82;;;-3.00;99.90;;;;;;5080449;28;20121;-61
2022/01/16 04:56:05;;;;;;;12.02;6.97;;;-3.00;99.90;;;;;;5080399;28;20040;-61
2022/01/16 04:58:33;;;;;;;11.55;7.43;;;-3.00;99.90;;;;;;5079361;28;20055;-61
2022/01/16 05:01:00;;;;;;;13.60;7.72;;;-3.00;99.90;;;;;;5079766;28;20047;-61
2022/01/16 05:03:30;;;;;;;12.00;6.35;;;-3.00;99.90;;;;;;5080296;28;20082;-61
2022/01/16 05:05:58;;;;;;;12.07;6.32;;;-3.00;99.90;;;;;;5079971;28;20094;-61
2022/01/16 05:08:25;;;;;;;9.68;5.43;;;-3.00;99.90;;;;;;5077823;28;20056;-61
2022/01/16 05:10:55;;;;;;;9.02;4.95;;;-2.90;99.90;;;;;;5079139;28;20132;-61
2022/01/16 05:18:41;;;;;;;5.82;3.83;;;-2.90;99.90;;;;;;5079158;28;20632;-61
2022/01/16 05:21:08;;;;;;;6.90;4.30;;;-2.90;99.90;;;;;;5079087;28;20051;-61
2022/01/16 05:23:35;;;;;;;9.23;4.78;;;-2.90;99.90;;;;;;5079535;28;20048;-61
2022/01/16 05:26:03;;;;;;;8.55;4.82;;;-3.00;99.90;;;;;;5079628;28;20113;-61
2022/01/16 05:28:30;;;;;;;7.80;4.65;;;-2.90;99.90;;;;;;5077255;28;20044;-61
2022/01/16 05:30:57;;;;;;;7.30;4.38;;;-2.90;99.90;;;;;;5079200;28;20140;-61
2022/01/16 05:33:24;;;;;;;9.63;4.45;;;-3.00;99.90;;;;;;5078948;28;20128;-61
2022/01/16 05:35:51;;;;;;;13.10;6.10;;;-3.00;99.90;;;;;;5078931;28;20705;-61
2022/01/16 05:38:18;;;;;;;10.68;6.05;;;-3.00;99.90;;;;;;5079021;28;20244;-61
2022/01/16 05:40:46;;;;;;;11.55;6.25;;;-3.00;99.90;;;;;;5078592;28;20071;-61
2022/01/16 05:43:12;;;;;;;14.90;6.95;;;-3.00;99.90;;;;;;5078841;28;20633;-61
2022/01/16 05:45:39;;;;;;;12.23;7.13;;;-2.90;99.90;;;;;;5078696;28;20059;-61
2022/01/16 05:48:06;;;;;;;12.45;6.60;;;-2.90;99.90;;;;;;5078981;28;20093;-61
2022/01/16 05:50:32;;;;;;;;;;;-2.90;99.90;;;;;;5075164;28;20068;-62
2022/01/16 05:53:01;;;;;;;14.30;6.90;;;-2.90;99.90;;;;;;5078798;28;19924;-61
2022/01/16 05:55:36;;;;;;;13.75;6.57;;;-2.80;99.90;;;;;;5078528;28;20072;-61
2022/01/16 05:58:04;;;;;;;11.27;6.03;;;-2.80;99.90;;;;;;5079317;28;20074;-61
2022/01/16 06:00:32;;;;;;;12.55;6.80;;;-2.80;99.90;;;;;;5077894;28;20093;-61
2022/01/16 06:03:00;;;;;;;7.97;5.85;;;-2.80;99.90;;;;;;5079032;28;20044;-61
2022/01/16 06:05:27;;;;;;;13.63;6.97;;;-2.70;99.90;;;;;;5079196;28;20097;-61
2022/01/16 06:07:58;;;;;;;13.10;6.50;;;-2.70;99.90;;;;;;5078604;28;20106;-61
2022/01/16 06:10:26;;;;;;;13.07;7.25;;;-2.70;99.90;;;;;;5078713;28;20092;-61
2022/01/16 06:12:53;;;;;;;12.90;6.30;;;-2.70;99.90;;;;;;5078282;28;20047;-61
2022/01/16 06:15:21;;;;;;;9.45;5.35;;;-2.70;99.90;;;;;;5079042;28;20093;-61
2022/01/16 06:17:50;;;;;;;11.90;5.43;;;-2.70;99.90;;;;;;5078353;28;20119;-60
2022/01/16 06:20:17;;;;;;;8.55;4.22;;;-2.70;99.90;;;;;;5078760;28;20476;-61
2022/01/16 06:22:44;;;;;;;7.22;4.53;;;-2.70;99.90;;;;;;5077358;28;20048;-62
2022/01/16 06:25:13;;;;;;;8.38;4.50;;;-2.70;99.90;;;;;;5078236;28;20047;-62
2022/01/16 06:27:41;;;;;;;6.55;3.78;;;-2.70;99.90;;;;;;5078496;28;20052;-61
2022/01/16 06:30:10;;;;;;;8.52;3.88;;;-2.80;99.90;;;;;;5075801;28;20083;-61
2022/01/16 06:32:37;;;;;;;8.23;4.40;;;-2.80;99.90;;;;;;5078734;28;20052;-61
2022/01/16 06:35:05;;;;;;;7.30;3.42;;;-2.80;99.90;;;;;;5077897;28;20243;-61
2022/01/16 06:37:32;;;;;;;7.40;3.78;;;-2.80;99.90;;;;;;5077809;28;20040;-62
2022/01/16 06:39:59;;;;;;;6.80;3.40;;;-2.90;99.90;;;;;;5077202;28;20117;-62
2022/01/16 06:42:26;;;;;;;7.60;4.15;;;-2.90;99.90;;;;;;5076403;28;20125;-61
2022/01/16 06:44:53;;;;;;;6.97;3.85;;;-2.90;99.90;;;;;;5078050;28;20101;-62
2022/01/16 06:47:19;;;;;;;10.50;5.07;;;-3.00;99.90;;;;;;5078117;28;20040;-56
2022/01/16 06:49:46;;;;;;;8.23;4.65;;;-3.00;99.90;;;;;;5076352;28;20529;-56
2022/01/16 06:52:13;;;;;;;8.80;4.93;;;-3.00;99.90;;;;;;5076901;28;20070;-56
2022/01/16 06:54:41;;;;;;;11.13;5.18;;;-3.00;99.90;;;;;;5078133;28;20097;-55
2022/01/16 06:57:08;;;;;;;11.85;4.95;;;-3.00;99.90;;;;;;5077654;28;20560;-56
2022/01/16 06:59:38;;;;;;;9.70;5.65;;;-3.10;99.90;;;;;;5077542;28;20131;-56
2022/01/16 07:02:08;;;;;;;11.00;5.47;;;-3.10;99.90;;;;;;5077387;28;20542;-56
2022/01/16 07:04:35;;;;;;;13.10;7.80;;;-3.10;99.90;;;;;;5077882;28;20044;-56
2022/01/16 07:07:02;;;;;;;14.07;7.47;;;-3.10;99.90;;;;;;5077566;28;20055;-56
2022/01/16 07:09:29;;;;;;;14.20;7.55;;;-3.10;99.90;;;;;;5077521;28;20040;-56
2022/01/16 07:11:55;;;;;;;11.00;6.57;;;-3.10;99.90;;;;;;5077809;28;20129;-56
2022/01/16 07:14:22;;;;;;;16.35;8.88;;;-3.10;99.90;;;;;;5077733;28;20044;-56
2022/01/16 07:16:49;;;;;;;12.88;7.10;;;-3.00;99.90;;;;;;5077997;28;20454;-56
2022/01/16 07:19:16;;;;;;;19.35;8.98;;;-3.00;99.90;;;;;;5076731;28;20093;-56
2022/01/16 07:21:43;;;;;;;15.95;7.70;;;-3.00;99.90;;;;;;5077498;28;20297;-56
2022/01/16 07:24:15;;;;;;;12.43;7.25;;;-3.00;99.90;;;;;;5077259;28;20159;-56
2022/01/16 07:26:43;;;;;;;14.25;8.38;;;-3.00;99.90;;;;;;5077732;28;20051;-56
2022/01/16 07:29:10;;;;;;;16.20;8.88;;;-3.00;99.90;;;;;;5076366;28;20439;-56
2022/01/16 07:31:38;;;;;;;15.75;7.93;;;-3.00;99.90;;;;;;5071433;28;20044;-55
2022/01/16 07:34:06;;;;;;;14.70;7.88;;;-2.90;99.90;;;;;;5076372;28;20048;-55
2022/01/16 07:36:33;;;;;;;15.65;9.45;;;-2.80;99.90;;;;;;5075959;28;20486;-55
2022/01/16 07:39:00;;;;;;;16.23;9.43;;;-2.60;99.90;;;;;;5076204;28;20044;-56
2022/01/16 07:41:27;;;;;;;11.57;7.65;;;-2.40;99.90;;;;;;5076551;28;20048;-56
2022/01/16 07:43:54;;;;;;;12.02;7.28;;;-2.10;99.90;;;;;;5075079;28;20390;-55
2022/01/16 07:46:21;;;;;;;13.73;7.40;;;-1.80;99.90;;;;;;5076904;28;20460;-55
2022/01/16 07:48:48;;;;;;;11.68;7.00;;;-1.60;99.90;;;;;;5074328;28;20032;-55
2022/01/16 07:51:15;;;;;;;15.85;8.05;;;-1.30;99.90;;;;;;5074193;28;21002;-56
2022/01/16 07:53:42;;;;;;;14.15;7.60;;;-1.10;99.90;;;;;;5075490;28;20050;-55
2022/01/16 07:56:09;;;;;;;18.33;10.18;;;-0.80;99.90;;;;;;5076593;28;20458;-56
2022/01/16 07:58:36;;;;;;;18.83;9.65;;;-0.50;99.90;;;;;;5075364;28;20459;-56
2022/01/16 08:01:03;;;;;;;15.95;8.50;;;-0.20;99.90;;;;;;5075798;28;20040;-56
2022/01/16 08:03:31;;;;;;;14.63;7.00;;;0.00;99.90;;;;;;5076132;28;20105;-55
2022/01/16 08:05:58;;;;;;;13.82;7.20;;;0.30;99.90;;;;;;5075518;28;20127;-56
2022/01/16 08:08:24;;;;;;;14.77;7.38;;;0.60;99.90;;;;;;5076536;28;20040;-56
2022/01/16 08:10:51;;;;;;;;;;;0.80;99.90;;;;;;5076125;28;20157;-56
2022/01/16 08:13:18;;;;;;;13.35;7.88;;;1.10;99.90;;;;;;5076735;28;19928;-56
2022/01/16 08:15:44;;;;;;;;;;;1.30;99.90;;;;;;5075302;28;20381;-56
2022/01/16 08:18:15;;;;;;;17.85;6.32;;;1.50;99.90;;;;;;5076216;28;19930;-55
2022/01/16 08:20:42;;;;;;;10.27;5.53;;;1.70;99.90;;;;;;5075449;28;20714;-55
2022/01/16 08:23:09;;;;;;;10.40;5.28;;;1.90;99.90;;;;;;5075879;28;20105;-55
2022/01/16 08:25:36;;;;;;;13.38;6.35;;;1.90;99.90;;;;;;5079882;28;20044;-56
2022/01/16 08:28:03;;;;;;;;;;;1.90;99.90;;;;;;5078981;28;20063;-56
2022/01/16 08:30:30;;;;;;;11.38;5.30;;;1.90;99.90;;;;;;5079622;28;19932;-56
2022/01/16 08:32:56;;;;;;;12.45;5.82;;;1.90;99.90;;;;;;5079756;28;20952;-55
2022/01/16 08:35:23;;;;;;;;;;;1.90;99.90;;;;;;5080257;28;20044;-54
2022/01/16 08:37:50;;;;;;;8.32;5.20;;;2.00;99.90;;;;;;5079409;28;20400;-55
2022/01/16 08:40:17;;;;;;;7.45;5.15;;;2.10;99.90;;;;;;5078863;28;20044;-54
2022/01/16 08:42:44;;;;;;;12.05;6.22;;;2.30;99.90;;;;;;5075162;28;20140;-54
2022/01/16 08:45:10;;;;;;;;;;;2.30;99.90;;;;;;5076977;28;20097;-55
2022/01/16 08:47:37;;;;;;;10.38;5.38;;;2.40;99.90;;;;;;5077164;28;19923;-55
2022/01/16 08:50:06;;;;;;;12.95;7.03;;;2.40;99.90;;;;;;5079120;28;20052;-54
2022/01/16 08:52:33;;;;;;;13.95;6.65;;;2.50;99.90;;;;;;5075972;28;20106;-54
2022/01/16 08:55:01;;;;;;;;;;;2.50;99.90;;;;;;5080002;28;20051;-54
2022/01/16 08:57:29;;;;;;;10.77;6.15;;;2.60;99.90;;;;;;5079054;28;19923;-54
2022/01/16 08:59:56;;;;;;;9.48;5.32;;;2.60;99.90;;;;;;5078896;28;20302;-55
2022/01/16 09:02:22;;;;;;;;;;;2.70;99.90;;;;;;5077966;28;20040;-55
2022/01/16 09:04:50;;;;;;;12.73;7.37;;;2.70;99.90;;;;;;5079308;28;19949;-54
2022/01/16 09:07:17;;;;;;;;;;;2.80;99.90;;;;;;5080115;28;20083;-54
2022/01/16 09:09:44;;;;;;;10.25;6.22;;;2.90;99.90;;;;;;5078074;28;20415;-54
2022/01/16 09:12:11;;;;;;;13.30;6.63;;;3.00;99.90;;;;;;5079036;28;20079;-54
2022/01/16 09:14:38;;;;;;;10.45;6.45;;;3.00;99.90;;;;;;5079075;28;20055;-54
2022/01/16 09:17:04;;;;;;;;;;;3.10;99.90;;;;;;5079828;28;20125;-54
2022/01/16 09:19:31;;;;;;;12.57;7.32;;;3.30;99.90;;;;;;5077917;28;19989;-54
2022/01/16 09:21:58;;;;;;;13.93;7.93;;;3.30;99.90;;;;;;5078514;28;20498;-54
2022/01/16 09:24:25;;;;;;;;;;;3.50;99.90;;;;;;5079273;28;20055;-53
2022/01/16 09:26:54;;;;;;;14.40;7.90;;;3.60;99.90;;;;;;5076595;28;20004;-54
2022/01/16 09:29:21;;;;;;;17.20;7.63;;;3.70;99.90;;;;;;5078774;28;20101;-55
2022/01/16 09:31:48;;;;;;;10.15;6.68;;;3.80;99.90;;;;;;5076559;28;20521;-54
2022/01/16 09:34:15;;;;;;;10.25;6.45;;;4.00;99.90;;;;;;5076798;28;20533;-56
2022/01/16 09:36:42;;;;;;;10.82;6.68;;;4.20;99.90;;;;;;5075703;28;20226;-55
2022/01/16 09:39:10;;;;;;;11.52;6.88;;;4.30;99.90;;;;;;5076369;28;20043;-46
2022/01/16 09:41:37;;;;;;;15.93;8.07;;;4.50;99.90;;;;;;5077888;28;20068;-47
2022/01/16 09:44:04;;;;;;;;;;;4.70;99.90;;;;;;5077771;28;20407;-47
2022/01/16 09:46:31;;;;;;;16.70;8.20;;;4.70;99.90;;;;;;5078287;28;19970;-56
2022/01/16 09:48:57;;;;;;;;;;;4.80;99.90;;;;;;5078393;28;20048;-56
2022/01/16 09:51:24;;;;;;;15.05;8.77;;;4.90;99.90;;;;;;5078283;28;20021;-56
2022/01/16 09:53:51;;;;;;;;;;;4.90;99.90;;;;;;5076364;28;20048;-55
2022/01/16 09:56:17;;;;;;;11.77;7.57;;;5.10;99.90;;;;;;5078865;28;20378;-55
2022/01/16 09:58:44;;;;;;;;;;;5.20;99.90;;;;;;5078862;28;20039;-55
2022/01/16 10:01:11;;;;;;;17.80;10.23;;;5.40;99.90;;;;;;5078018;28;20171;-56
2022/01/16 10:03:41;;;;;;;18.05;10.35;;;5.60;99.90;;;;;;5077186;28;20043;-57
2022/01/16 10:06:21;;;;;;;22.55;11.25;;;5.80;99.90;;;;;;5075995;28;20046;-56
2022/01/16 10:08:53;;;;;;;22.15;11.88;;;6.00;99.90;;;;;;5078422;28;20434;-56
2022/01/16 10:11:32;;;;;;;23.95;12.63;;;6.10;99.90;;;;;;5075943;28;20271;-56
2022/01/16 10:14:46;;;;;;;16.95;9.90;;;6.30;99.90;;;;;;5077896;28;20048;-56
2022/01/16 10:16:50;;;;;;;17.58;11.30;;;6.50;99.90;;;;;;5072196;28;20097;-55
2022/01/16 10:19:22;;;;;;;;;;;6.70;99.50;;;;;;5078359;28;20481;-56
2022/01/16 10:21:49;;;;;;;21.67;12.13;;;6.90;98.10;;;;;;5077174;28;20001;-55
2022/01/16 10:24:28;;;;;;;23.17;13.32;;;7.10;97.70;;;;;;5076302;28;20625;-55
2022/01/16 10:27:07;;;;;;;23.60;14.20;;;7.30;97.10;;;;;;5077801;28;20452;-55
2022/01/16 10:29:45;;;;;;;24.23;14.35;;;7.50;97.10;;;;;;5077297;28;20541;-53
2022/01/16 10:32:23;;;;;;;29.67;15.88;;;7.80;96.00;;;;;;5075397;28;20141;-55
2022/01/16 10:34:54;;;;;;;24.45;15.48;;;8.10;93.40;;;;;;5077156;28;20108;-54
2022/01/16 10:37:30;;;;;;;27.27;15.57;;;8.20;90.80;;;;;;5077818;28;20052;-55
2022/01/16 10:40:09;;;;;;;27.75;16.58;;;8.30;90.60;;;;;;5076440;28;20036;-55
2022/01/16 10:42:39;;;;;;;29.90;14.68;;;8.30;89.70;;;;;;5073957;28;20044;-55
2022/01/16 10:45:12;;;;;;;23.08;13.98;;;8.30;89.00;;;;;;5075486;28;20051;-55
2022/01/16 10:47:42;;;;;;;21.92;12.65;;;8.40;87.30;;;;;;5076122;28;20048;-55
2022/01/16 10:50:11;;;;;;;18.30;12.48;;;8.40;83.20;;;;;;5075057;28;20032;-55
2022/01/16 10:52:53;;;;;;;19.50;12.23;;;8.50;79.60;;;;;;5075884;28;20059;-55
2022/01/16 10:55:35;;;;;;;16.90;10.93;;;8.60;76.70;;;;;;5074053;28;20056;-55
2022/01/16 10:58:06;;;;;;;20.20;11.18;;;8.60;71.30;;;;;;5075492;28;20040;-55
2022/01/16 11:00:33;;;;;;;17.30;11.43;;;8.70;72.30;;;;;;5076854;28;20039;-54
2022/01/16 11:03:03;;;;;;;16.95;10.32;;;8.60;72.40;;;;;;5076599;28;20113;-55
2022/01/16 11:05:34;;;;;;;17.00;9.48;;;8.70;74.70;;;;;;5076942;28;20569;-55
2022/01/16 11:08:07;;;;;;;15.52;10.05;;;8.90;72.10;;;;;;5076477;28;20052;-54
2022/01/16 11:10:36;;;;;;;16.85;10.50;;;9.10;71.10;;;;;;5076404;28;20105;-55
2022/01/16 11:13:06;;;;;;;14.18;9.02;;;9.30;70.10;;;;;;5076304;28;20090;-55
2022/01/16 11:15:34;;;;;;;15.15;9.38;;;9.60;69.20;;;;;;5076694;28;20048;-55
2022/01/16 11:18:02;;;;;;;17.50;10.38;;;9.70;67.70;;;;;;5076759;28;20044;-55
2022/01/16 11:20:34;;;;;;;17.90;10.13;;;10.00;67.60;;;;;;5076535;28;20501;-54
2022/01/16 11:23:12;;;;;;;15.52;9.48;;;10.10;67.60;;;;;;5076625;28;20670;-54
2022/01/16 11:25:40;;;;;;;13.57;9.27;;;10.30;66.00;;;;;;5075626;28;20056;-56
2022/01/16 11:28:10;;;;;;;14.43;9.43;;;10.40;65.30;;;;;;5076414;28;20120;-56
2022/01/16 11:30:49;;;;;;;14.75;10.05;;;10.50;63.20;;;;;;5076311;28;20462;-55
2022/01/16 11:33:21;;;;;;;13.13;9.02;;;10.60;62.90;;;;;;5076536;28;20051;-56
2022/01/16 11:35:58;;;;;;;12.52;8.30;;;10.70;63.00;;;;;;5076217;28;20043;-56
2022/01/16 11:38:37;;;;;;;12.90;8.00;;;10.80;60.40;;;;;;5076942;28;20286;-56
2022/01/16 11:41:15;;;;;;;12.02;8.43;;;10.80;60.90;;;;;;5076119;28;20395;-56
2022/01/16 11:43:47;;;;;;;10.02;7.10;;;10.80;60.60;;;;;;5075234;28;20059;-55
2022/01/16 11:46:19;;;;;;;12.70;7.85;;;10.80;59.40;;;;;;5074376;28;20052;-55
2022/01/16 11:48:58;;;;;;;10.13;7.00;;;10.70;59.00;;;;;;5072202;28;20047;-55
2022/01/16 11:51:33;;;;;;;11.32;7.30;;;10.80;59.70;;;;;;5073908;28;20138;-55
2022/01/16 11:54:08;;;;;;;10.77;7.15;;;10.80;59.60;;;;;;5074495;28;20056;-55
2022/01/16 11:56:41;;;;;;;14.00;7.93;;;10.80;60.10;;;;;;5075106;28;20093;-55
2022/01/16 11:59:30;;;;;;;9.95;6.63;;;10.80;59.90;;;;;;5075035;28;20044;-55
2022/01/16 12:02:18;;;;;;;9.65;6.38;;;10.80;60.70;;;;;;5076338;28;20059;-55
2022/01/16 12:04:45;;;;;;;10.90;7.07;;;10.90;59.80;;;;;;5076476;28;20055;-55
2022/01/16 12:07:17;;;;;;;12.27;7.32;;;10.80;59.00;;;;;;5076709;28;20113;-56
2022/01/16 12:12:14;;;;;;;9.32;6.68;;;10.60;60.50;;;;;;5075577;28;20051;-55
2022/01/16 12:15:00;;;;;;;9.52;5.60;;;10.50;60.60;;;;;;5075993;28;20074;-55
2022/01/16 12:17:33;;;;;;;9.80;6.05;;;10.50;63.10;;;;;;5075509;28;20052;-55
2022/01/16 12:20:25;;;;;;;9.32;5.60;;;10.50;61.40;;;;;;5075430;28;20112;-55
2022/01/16 12:22:53;;;;;;;7.88;5.93;;;10.40;61.00;;;;;;5075763;28;20063;-55
2022/01/16 12:25:45;;;;;;;9.27;5.80;;;10.20;61.50;;;;;;5075707;28;20181;-56
2022/01/16 12:28:12;;;;;;;9.75;5.78;;;10.10;61.00;;;;;;5075745;28;20410;-56
2022/01/16 12:30:38;;;;;;;8.95;5.97;;;10.00;62.90;;;;;;5075846;28;20052;-56
2022/01/16 12:33:10;;;;;;;;;;;10.00;60.40;;;;;;5076248;28;20040;-55
2022/01/16 12:35:50;;;;;;;7.90;5.10;;;9.80;60.30;;;;;;5075514;28;19920;-55
2022/01/16 12:38:23;;;;;;;9.75;6.07;;;9.60;62.00;;;;;;5076132;28;20048;-56
2022/01/16 12:40:59;;;;;;;10.55;5.45;;;9.60;61.90;;;;;;5075273;28;20036;-56
2022/01/16 12:43:39;;;;;;;7.85;5.25;;;9.50;63.40;;;;;;5076307;28;20555;-56
2022/01/16 12:46:09;;;;;;;10.48;6.10;;;9.60;64.00;;;;;;5075819;28;20048;-55
2022/01/16 12:48:51;;;;;;;12.13;6.03;;;9.70;61.90;;;;;;5075461;28;20181;-56
2022/01/16 12:51:22;;;;;;;8.82;5.60;;;9.50;63.50;;;;;;5075300;28;20113;-56
2022/01/16 12:53:51;;;;;;;7.32;5.07;;;9.30;64.50;;;;;;5076259;28;20039;-56
2022/01/16 12:56:25;;;;;;;10.02;6.55;;;9.10;64.80;;;;;;5073566;28;20050;-56
2022/01/16 12:58:55;;;;;;;9.50;5.78;;;9.00;65.70;;;;;;5075972;28;20056;-56
2022/01/16 13:01:23;;;;;;;8.75;6.07;;;9.00;65.40;;;;;;5075661;28;20121;-56
2022/01/16 13:03:50;;;;;;;8.02;5.38;;;9.00;67.10;;;;;;5075759;28;20269;-56
2022/01/16 13:06:26;;;;;;;;;;;9.10;66.50;;;;;;5077076;28;20048;-56
2022/01/16 13:08:59;;;;;;;8.00;5.32;;;9.00;64.00;;;;;;5075950;28;20121;-55
2022/01/16 13:11:31;;;;;;;7.85;5.05;;;8.90;64.30;;;;;;5079262;28;20040;-56
2022/01/16 13:13:58;;;;;;;9.43;5.45;;;9.00;66.70;;;;;;5079136;28;20124;-55
2022/01/16 13:16:32;;;;;;;9.80;5.82;;;8.90;64.70;;;;;;5079228;28;20028;-56
2022/01/16 13:19:05;;;;;;;8.02;5.07;;;8.90;66.30;;;;;;5076919;28;20082;-56
2022/01/16 13:21:56;;;;;;;7.10;4.68;;;9.10;65.60;;;;;;5078929;28;20340;-56
2022/01/16 13:24:47;;;;;;;7.72;4.93;;;9.10;66.50;;;;;;5078749;28;20082;-56
2022/01/16 13:27:18;;;;;;;9.50;5.28;;;9.20;67.50;;;;;;5058628;28;20141;-57
2022/01/16 13:29:59;;;;;;;9.50;5.75;;;9.40;65.70;;;;;;5058525;28;20071;-57
2022/01/16 13:32:31;;;;;;;8.13;5.47;;;9.50;62.90;;;;;;5058903;28;20040;-56
2022/01/16 13:35:17;;;;;;;9.20;5.35;;;9.70;64.30;;;;;;5058630;28;20406;-57
2022/01/16 13:37:45;;;;;;;11.30;5.82;;;9.80;63.60;;;;;;5058328;28;20442;-57
2022/01/16 13:40:18;;;;;;;10.63;5.40;;;9.80;61.70;;;;;;5062566;28;20028;-56
2022/01/16 13:45:24;;;;;;;9.75;6.72;;;9.60;63.20;;;;;;5078839;28;20125;-56